createdAt,value
2023-05-08T00:05:03.512Z,17.5
2023-05-08T00:10:11.998Z,17.5
2023-05-08T00:15:19.362Z,17.5
2023-05-08T00:20:27.300Z,17.4
2023-05-08T00:25:35.254Z,17.4
2023-05-08T00:30:43.208Z,17.4
2023-05-08T00:35:51.166Z,17.4
2023-05-08T00:40:59.067Z,17.3
2023-05-08T00:46:07.057Z,17.3
2023-05-08T00:51:14.985Z,17.3
2023-05-08T00:56:22.902Z,17.2
2023-05-08T01:01:30.853Z,17.2
2023-05-08T01:06:38.777Z,17.2
2023-05-08T01:11:46.735Z,17.2
2023-05-08T01:16:54.691Z,17.1
2023-05-08T01:22:02.655Z,17.1
2023-05-08T01:27:08.692Z,17.1
2023-05-08T01:32:14.763Z,17.1
2023-05-08T01:52:44.669Z,17
2023-05-08T01:57:52.609Z,16.9
2023-05-08T02:02:58.727Z,16.9
2023-05-08T02:08:06.584Z,16.9
2023-05-08T02:13:12.732Z,16.8
2023-05-08T02:18:18.736Z,16.8
2023-05-08T02:23:26.664Z,16.8
2023-05-08T02:28:32.763Z,16.8
2023-05-08T02:33:38.849Z,16.7
2023-05-08T02:38:44.885Z,16.7
2023-05-08T02:43:50.917Z,16.7
2023-05-08T02:48:57.009Z,16.7
2023-05-08T02:54:03.323Z,16.7
2023-05-08T02:59:09.405Z,16.6
2023-05-08T03:04:15.487Z,16.6
2023-05-08T03:09:23.409Z,16.6
2023-05-08T03:14:31.353Z,16.6
2023-05-08T03:19:37.432Z,16.5
2023-05-08T03:24:43.502Z,16.5
2023-05-08T03:29:49.568Z,16.5
2023-05-08T03:34:55.627Z,16.5
2023-05-08T03:45:07.752Z,16.4
2023-05-08T03:50:14.030Z,16.4
2023-05-08T03:55:19.918Z,16.4
2023-05-08T04:00:25.964Z,16.4
2023-05-08T04:05:32.025Z,16.4
2023-05-08T04:10:38.080Z,16.3
2023-05-08T04:15:44.153Z,16.3
2023-05-08T04:20:52.123Z,16.3
2023-05-08T04:36:10.309Z,16.2
2023-05-08T04:41:16.433Z,16.2
2023-05-08T04:46:22.429Z,16.2
2023-05-08T04:51:28.498Z,16.2
2023-05-08T04:56:34.587Z,16.1
2023-05-08T05:06:46.710Z,16.1
2023-05-08T05:11:52.762Z,16.1
2023-05-08T05:16:58.835Z,16.1
2023-05-08T05:22:06.756Z,16
2023-05-08T05:27:14.717Z,16
2023-05-08T05:32:22.796Z,16
2023-05-08T05:37:30.578Z,16
2023-05-08T05:42:38.583Z,16
2023-05-08T05:47:46.547Z,15.9
2023-05-08T05:52:54.429Z,15.9
2023-05-08T05:58:02.380Z,15.9
2023-05-08T06:03:10.385Z,15.9
2023-05-08T06:08:18.261Z,15.9
2023-05-08T06:13:26.271Z,15.9
2023-05-08T06:18:34.173Z,15.9
2023-05-08T06:23:42.130Z,15.8
2023-05-08T06:28:48.177Z,15.8
2023-05-08T06:33:54.243Z,15.8
2023-05-08T06:39:02.187Z,15.8
2023-05-08T06:44:10.127Z,15.8
2023-05-08T06:49:16.196Z,15.9
2023-05-08T06:54:22.247Z,15.9
2023-05-08T06:59:28.326Z,15.9
2023-05-08T07:04:34.417Z,15.9
2023-05-08T07:09:40.457Z,15.9
2023-05-08T07:14:46.530Z,15.9
2023-05-08T07:19:52.612Z,15.9
2023-05-08T07:24:58.676Z,15.9
2023-05-08T07:30:04.738Z,15.9
2023-05-08T07:35:11.398Z,15.9
2023-05-08T07:40:16.863Z,16
2023-05-08T07:45:22.933Z,16
2023-05-08T07:50:29.001Z,16
2023-05-08T07:55:36.948Z,16
2023-05-08T08:00:44.853Z,16
2023-05-08T08:05:52.814Z,16
2023-05-08T08:11:02.945Z,16
2023-05-08T08:16:08.732Z,16
2023-05-08T08:21:16.682Z,16
2023-05-08T08:26:24.633Z,16
2023-05-08T08:31:32.638Z,16.1
2023-05-08T08:41:48.416Z,16.1
2023-05-08T08:46:56.417Z,16.1
2023-05-08T08:52:04.325Z,16.1
2023-05-08T08:57:12.275Z,16.1
2023-05-08T09:02:20.239Z,16.1
2023-05-08T09:07:28.130Z,16.1
2023-05-08T09:17:44.031Z,16.1
2023-05-08T09:22:51.972Z,16.1
2023-05-08T09:27:59.927Z,16.2
2023-05-08T09:33:07.896Z,16.2
2023-05-08T09:38:15.805Z,16.2
2023-05-08T09:43:23.757Z,16.2
2023-05-08T09:48:31.707Z,16.2
2023-05-08T09:53:39.653Z,16.2
2023-05-08T09:58:47.600Z,16.2
2023-05-08T10:03:55.592Z,16.2
2023-05-08T10:09:03.487Z,16.2
2023-05-08T10:14:11.442Z,16.2
2023-05-08T10:19:19.494Z,16.2
2023-05-08T10:24:27.346Z,16.3
2023-05-08T10:29:35.278Z,16.3
2023-05-08T10:34:43.208Z,16.3
2023-05-08T10:39:51.161Z,16.3
2023-05-08T10:50:07.058Z,16.3
2023-05-08T10:55:15.001Z,16.3
2023-05-08T11:00:22.957Z,16.3
2023-05-08T11:05:30.877Z,16.3
2023-05-08T11:10:38.838Z,16.3
2023-05-08T11:15:46.825Z,16.3
2023-05-08T11:20:54.722Z,16.3
2023-05-08T11:26:02.710Z,16.4
2023-05-08T11:31:10.650Z,16.4
2023-05-08T11:41:26.523Z,16.5
2023-05-08T11:46:34.473Z,16.5
2023-05-08T11:51:42.420Z,16.5
2023-05-08T11:56:50.702Z,16.6
2023-05-08T12:02:07.590Z,16.6
2023-05-08T12:07:06.243Z,16.7
2023-05-08T12:12:14.179Z,16.7
2023-05-08T12:17:22.382Z,16.8
2023-05-08T12:22:30.068Z,16.9
2023-05-08T12:27:38.018Z,16.9
2023-05-08T12:32:46.000Z,17
2023-05-08T12:37:53.892Z,17.1
2023-05-08T12:43:01.835Z,17.2
2023-05-08T12:48:09.871Z,17.3
2023-05-08T12:53:17.740Z,17.4
2023-05-08T12:58:25.676Z,17.5
2023-05-08T13:03:33.718Z,17.6
2023-05-08T13:08:41.566Z,17.7
2023-05-08T13:13:49.519Z,17.9
2023-05-08T13:18:57.455Z,18
2023-05-08T13:24:05.387Z,18.1
2023-05-08T13:29:13.354Z,18.3
2023-05-08T13:34:19.403Z,18.4
2023-05-08T13:39:27.345Z,18.5
2023-05-08T13:44:35.279Z,18.6
2023-05-08T13:49:43.199Z,18.8
2023-05-08T13:54:51.172Z,18.9
2023-05-08T13:59:59.108Z,19
2023-05-08T14:05:07.063Z,19.2
2023-05-08T14:10:15.004Z,19.3
2023-05-08T14:15:26.909Z,19.4
2023-05-08T14:20:30.898Z,19.5
2023-05-08T14:25:38.846Z,19.7
2023-05-08T14:30:46.802Z,19.8
2023-05-08T14:35:54.746Z,19.9
2023-05-08T14:41:04.491Z,20
2023-05-08T14:46:10.657Z,20.1
2023-05-08T14:51:18.584Z,20.2
2023-05-08T14:56:26.667Z,20.3
2023-05-08T15:01:34.503Z,20.4
2023-05-08T15:06:42.424Z,20.5
2023-05-08T15:11:50.355Z,20.6
2023-05-08T15:16:58.280Z,20.7
2023-05-08T15:22:06.210Z,20.7
2023-05-08T15:27:14.215Z,20.8
2023-05-08T15:32:22.176Z,20.8
2023-05-08T15:37:30.074Z,20.9
2023-05-08T15:42:38.029Z,21
2023-05-08T15:47:45.999Z,21
2023-05-08T15:52:53.903Z,21.1
2023-05-08T15:58:01.854Z,21.1
2023-05-08T16:03:09.885Z,21.1
2023-05-08T16:08:17.760Z,21.2
2023-05-08T16:13:25.731Z,21.2
2023-05-08T16:18:33.596Z,21.2
2023-05-08T16:23:41.625Z,21.3
2023-05-08T16:28:49.503Z,21.3
2023-05-08T16:33:57.441Z,21.3
2023-05-08T16:39:03.530Z,21.3
2023-05-08T16:44:11.457Z,21.3
2023-05-08T16:49:17.537Z,21.3
2023-05-08T16:54:25.590Z,21.3
2023-05-08T16:59:31.505Z,21.3
2023-05-08T17:04:37.576Z,21.3
2023-05-08T17:09:43.642Z,21.3
2023-05-08T17:14:49.707Z,21.3
2023-05-08T17:19:57.655Z,21.2
2023-05-08T17:25:03.709Z,21.2
2023-05-08T17:30:09.794Z,21.2
2023-05-08T17:35:15.849Z,21.2
2023-05-08T17:40:21.886Z,21.2
2023-05-08T17:45:28.001Z,21.2
2023-05-08T17:50:34.033Z,21.2
2023-05-08T17:55:40.121Z,21.3
2023-05-08T18:00:46.169Z,21.3
2023-05-08T18:05:52.237Z,21.3
2023-05-08T18:10:58.283Z,21.3
2023-05-08T18:21:12.304Z,21.3
2023-05-08T18:26:20.244Z,21.3
2023-05-08T18:36:36.129Z,21.3
2023-05-08T18:41:44.059Z,21.3
2023-05-08T18:51:59.971Z,21.2
2023-05-08T18:57:07.900Z,21.2
2023-05-08T19:02:15.842Z,21.2
2023-05-08T19:07:23.829Z,21.2
2023-05-08T19:17:39.713Z,21.1
2023-05-08T19:22:45.754Z,21.1
2023-05-08T19:27:53.673Z,21
2023-05-08T19:32:59.738Z,20.9
2023-05-08T19:38:05.798Z,20.9
2023-05-08T19:48:19.932Z,20.7
2023-05-08T19:53:25.923Z,20.6
2023-05-08T20:03:39.961Z,20.4
2023-05-08T20:08:45.969Z,20.3
2023-05-08T20:24:07.901Z,20
2023-05-08T20:29:15.851Z,19.9
2023-05-08T20:34:23.768Z,19.8
2023-05-08T20:39:31.718Z,19.8
2023-05-08T20:44:39.683Z,19.7
2023-05-08T20:49:47.622Z,19.6
2023-05-08T20:54:53.694Z,19.5
2023-05-08T20:59:59.759Z,19.4
2023-05-08T21:05:05.920Z,19.4
2023-05-08T21:10:12.079Z,19.3
2023-05-08T21:25:33.811Z,19.1
2023-05-08T21:30:39.885Z,19
2023-05-08T21:46:00.049Z,18.8
2023-05-08T21:56:13.982Z,18.7
2023-05-08T22:01:20.105Z,18.7
2023-05-08T22:06:26.115Z,18.6
2023-05-08T22:11:32.182Z,18.5
2023-05-08T22:21:46.202Z,18.4
2023-05-08T22:26:52.249Z,18.4
2023-05-08T22:31:58.361Z,18.3
2023-05-08T22:37:04.382Z,18.3
2023-05-08T22:42:10.439Z,18.2
2023-05-08T22:47:16.505Z,18.2
2023-05-08T22:52:22.585Z,18.1
2023-05-08T22:57:28.636Z,18.1
2023-05-08T23:02:34.734Z,18
2023-05-08T23:07:40.768Z,18
2023-05-08T23:12:46.879Z,17.9
2023-05-08T23:17:52.934Z,17.9
2023-05-08T23:22:58.987Z,17.8
2023-05-08T23:28:05.038Z,17.8
2023-05-08T23:33:13.279Z,17.8
2023-05-08T23:38:20.921Z,17.7
2023-05-08T23:43:28.864Z,17.7
2023-05-08T23:48:36.854Z,17.6
2023-05-08T23:53:44.738Z,17.6
2023-05-08T23:58:52.694Z,17.5
